sensor_id;sensor_type;location;lat;lon;timestamp;temperature;humidity
19544;DHT22;9917;51.256;7.152;2023-04-24T00:00:10;10.80;99.90
19544;DHT22;9917;51.256;7.152;2023-04-24T00:02:42;10.80;99.90
19544;DHT22;9917;51.256;7.152;2023-04-24T00:05:08;10.90;99.90
19544;DHT22;9917;51.256;7.152;2023-04-24T00:07:34;10.70;99.90
19544;DHT22;9917;51.256;7.152;2023-04-24T00:10:06;11.00;99.90
19544;DHT22;9917;51.256;7.152;2023-04-24T00:12:35;10.80;99.90
19544;DHT22;9917;51.256;7.152;2023-04-24T00:15:01;11.20;99.90
19544;DHT22;9917;51.256;7.152;2023-04-24T00:17:27;11.10;99.90
19544;DHT22;9917;51.256;7.152;2023-04-24T00:19:54;11.20;99.90
19544;DHT22;9917;51.256;7.152;2023-04-24T00:22:20;11.00;99.90
19544;DHT22;9917;51.256;7.152;2023-04-24T00:24:46;10.90;99.90
19544;DHT22;9917;51.256;7.152;2023-04-24T00:27:11;12.40;99.90
19544;DHT22;9917;51.256;7.152;2023-04-24T00:29:37;10.80;99.90
19544;DHT22;9917;51.256;7.152;2023-04-24T00:32:03;11.10;99.90
19544;DHT22;9917;51.256;7.152;2023-04-24T00:34:28;10.50;99.90
19544;DHT22;9917;51.256;7.152;2023-04-24T00:36:55;10.90;99.90
19544;DHT22;9917;51.256;7.152;2023-04-24T00:39:21;10.90;99.90
19544;DHT22;9917;51.256;7.152;2023-04-24T00:49:06;11.20;99.90
19544;DHT22;9917;51.256;7.152;2023-04-24T00:51:32;11.40;99.90
19544;DHT22;9917;51.256;7.152;2023-04-24T00:53:59;11.20;99.90
19544;DHT22;9917;51.256;7.152;2023-04-24T00:56:25;11.10;99.90
19544;DHT22;9917;51.256;7.152;2023-04-24T00:58:51;11.50;99.90
19544;DHT22;9917;51.256;7.152;2023-04-24T01:01:17;11.40;99.90
19544;DHT22;9917;51.256;7.152;2023-04-24T01:03:47;11.50;99.90
19544;DHT22;9917;51.256;7.152;2023-04-24T01:06:14;11.40;99.90
19544;DHT22;9917;51.256;7.152;2023-04-24T01:08:41;11.30;99.90
19544;DHT22;9917;51.256;7.152;2023-04-24T01:11:08;11.30;99.90
19544;DHT22;9917;51.256;7.152;2023-04-24T01:13:34;11.30;99.90
19544;DHT22;9917;51.256;7.152;2023-04-24T01:18:26;11.40;99.90
19544;DHT22;9917;51.256;7.152;2023-04-24T01:20:54;11.30;99.90
19544;DHT22;9917;51.256;7.152;2023-04-24T01:23:23;11.40;99.90
19544;DHT22;9917;51.256;7.152;2023-04-24T01:25:49;11.40;99.90
19544;DHT22;9917;51.256;7.152;2023-04-24T01:28:16;11.50;99.90
19544;DHT22;9917;51.256;7.152;2023-04-24T01:30:42;11.30;99.90
19544;DHT22;9917;51.256;7.152;2023-04-24T01:35:34;11.30;99.90
19544;DHT22;9917;51.256;7.152;2023-04-24T01:38:00;11.10;99.90
19544;DHT22;9917;51.256;7.152;2023-04-24T01:40:27;11.20;99.90
19544;DHT22;9917;51.256;7.152;2023-04-24T01:42:53;11.10;99.90
19544;DHT22;9917;51.256;7.152;2023-04-24T01:45:19;11.20;99.90
19544;DHT22;9917;51.256;7.152;2023-04-24T01:47:45;11.20;99.90
19544;DHT22;9917;51.256;7.152;2023-04-24T01:50:11;11.10;99.90
19544;DHT22;9917;51.256;7.152;2023-04-24T01:52:37;10.90;99.90
19544;DHT22;9917;51.256;7.152;2023-04-24T01:55:04;11.10;99.90
19544;DHT22;9917;51.256;7.152;2023-04-24T01:57:31;11.40;99.90
19544;DHT22;9917;51.256;7.152;2023-04-24T02:02:24;10.80;99.90
19544;DHT22;9917;51.256;7.152;2023-04-24T02:09:42;10.70;99.90
19544;DHT22;9917;51.256;7.152;2023-04-24T02:14:35;10.50;99.90
19544;DHT22;9917;51.256;7.152;2023-04-24T02:17:00;10.20;99.90
19544;DHT22;9917;51.256;7.152;2023-04-24T02:19:26;9.80;99.90
19544;DHT22;9917;51.256;7.152;2023-04-24T02:21:52;10.40;99.90
19544;DHT22;9917;51.256;7.152;2023-04-24T02:24:18;10.40;99.90
19544;DHT22;9917;51.256;7.152;2023-04-24T02:26:44;9.80;99.90
19544;DHT22;9917;51.256;7.152;2023-04-24T02:29:09;10.20;99.90
19544;DHT22;9917;51.256;7.152;2023-04-24T02:31:36;10.30;99.90
19544;DHT22;9917;51.256;7.152;2023-04-24T02:34:02;10.30;99.90
19544;DHT22;9917;51.256;7.152;2023-04-24T02:38:54;9.60;99.90
19544;DHT22;9917;51.256;7.152;2023-04-24T02:41:19;10.20;99.90
19544;DHT22;9917;51.256;7.152;2023-04-24T02:43:45;10.20;99.90
19544;DHT22;9917;51.256;7.152;2023-04-24T02:46:11;10.30;99.90
19544;DHT22;9917;51.256;7.152;2023-04-24T02:48:38;10.10;99.90
19544;DHT22;9917;51.256;7.152;2023-04-24T02:51:04;10.40;99.90
19544;DHT22;9917;51.256;7.152;2023-04-24T02:55:56;10.10;99.90
19544;DHT22;9917;51.256;7.152;2023-04-24T02:58:22;10.00;99.90
19544;DHT22;9917;51.256;7.152;2023-04-24T03:03:14;9.90;99.90
19544;DHT22;9917;51.256;7.152;2023-04-24T03:05:41;10.00;99.90
19544;DHT22;9917;51.256;7.152;2023-04-24T03:08:07;10.20;99.90
19544;DHT22;9917;51.256;7.152;2023-04-24T03:10:33;9.90;99.90
19544;DHT22;9917;51.256;7.152;2023-04-24T03:12:58;9.80;99.90
19544;DHT22;9917;51.256;7.152;2023-04-24T03:15:24;10.00;99.90
19544;DHT22;9917;51.256;7.152;2023-04-24T03:17:50;10.10;99.90
19544;DHT22;9917;51.256;7.152;2023-04-24T03:20:16;10.10;99.90
19544;DHT22;9917;51.256;7.152;2023-04-24T03:22:43;10.10;99.90
19544;DHT22;9917;51.256;7.152;2023-04-24T03:25:09;10.00;99.90
19544;DHT22;9917;51.256;7.152;2023-04-24T03:34:53;9.90;99.90
19544;DHT22;9917;51.256;7.152;2023-04-24T03:39:46;9.70;99.90
19544;DHT22;9917;51.256;7.152;2023-04-24T03:42:15;9.80;99.90
19544;DHT22;9917;51.256;7.152;2023-04-24T03:44:41;9.80;99.90
19544;DHT22;9917;51.256;7.152;2023-04-24T03:47:07;9.80;99.90
19544;DHT22;9917;51.256;7.152;2023-04-24T03:51:59;9.70;99.90
19544;DHT22;9917;51.256;7.152;2023-04-24T03:56:52;9.80;99.90
19544;DHT22;9917;51.256;7.152;2023-04-24T04:01:44;10.20;99.90
19544;DHT22;9917;51.256;7.152;2023-04-24T04:04:10;10.20;99.90
19544;DHT22;9917;51.256;7.152;2023-04-24T04:06:36;9.80;99.90
19544;DHT22;9917;51.256;7.152;2023-04-24T04:11:27;9.90;99.90
19544;DHT22;9917;51.256;7.152;2023-04-24T04:13:55;9.70;99.90
19544;DHT22;9917;51.256;7.152;2023-04-24T04:18:46;10.00;99.90
19544;DHT22;9917;51.256;7.152;2023-04-24T04:21:12;9.60;99.90
19544;DHT22;9917;51.256;7.152;2023-04-24T04:23:38;10.00;99.90
19544;DHT22;9917;51.256;7.152;2023-04-24T04:26:04;10.00;99.90
19544;DHT22;9917;51.256;7.152;2023-04-24T04:28:30;10.00;99.90
19544;DHT22;9917;51.256;7.152;2023-04-24T04:30:57;10.00;99.90
19544;DHT22;9917;51.256;7.152;2023-04-24T04:33:23;9.90;99.90
19544;DHT22;9917;51.256;7.152;2023-04-24T04:35:49;9.90;99.90
19544;DHT22;9917;51.256;7.152;2023-04-24T04:40:41;9.80;99.90
19544;DHT22;9917;51.256;7.152;2023-04-24T04:48:00;10.20;99.90
19544;DHT22;9917;51.256;7.152;2023-04-24T04:50:26;9.50;99.90
19544;DHT22;9917;51.256;7.152;2023-04-24T04:55:18;9.70;99.90
19544;DHT22;9917;51.256;7.152;2023-04-24T05:00:10;9.80;99.90
19544;DHT22;9917;51.256;7.152;2023-04-24T05:02:36;10.10;99.90
19544;DHT22;9917;51.256;7.152;2023-04-24T05:05:04;9.90;99.90
19544;DHT22;9917;51.256;7.152;2023-04-24T05:12:22;9.70;99.90
19544;DHT22;9917;51.256;7.152;2023-04-24T05:17:14;9.60;99.90
19544;DHT22;9917;51.256;7.152;2023-04-24T05:19:39;9.50;99.90
19544;DHT22;9917;51.256;7.152;2023-04-24T05:22:06;9.30;99.90
19544;DHT22;9917;51.256;7.152;2023-04-24T05:24:32;9.20;99.90
19544;DHT22;9917;51.256;7.152;2023-04-24T05:26:58;9.10;99.90
19544;DHT22;9917;51.256;7.152;2023-04-24T05:31:50;9.10;99.90
19544;DHT22;9917;51.256;7.152;2023-04-24T05:34:15;9.00;99.90
19544;DHT22;9917;51.256;7.152;2023-04-24T05:36:41;9.10;99.90
19544;DHT22;9917;51.256;7.152;2023-04-24T05:39:08;9.10;99.90
19544;DHT22;9917;51.256;7.152;2023-04-24T05:48:52;9.20;99.90
19544;DHT22;9917;51.256;7.152;2023-04-24T05:53:44;9.40;99.90
19544;DHT22;9917;51.256;7.152;2023-04-24T05:56:11;9.40;99.90
19544;DHT22;9917;51.256;7.152;2023-04-24T06:01:03;9.40;99.90
19544;DHT22;9917;51.256;7.152;2023-04-24T06:05:55;9.70;99.90
19544;DHT22;9917;51.256;7.152;2023-04-24T06:10:46;9.00;99.90
19544;DHT22;9917;51.256;7.152;2023-04-24T06:13:13;9.00;99.90
19544;DHT22;9917;51.256;7.152;2023-04-24T06:20:31;8.90;99.90
19544;DHT22;9917;51.256;7.152;2023-04-24T06:22:57;8.90;99.90
19544;DHT22;9917;51.256;7.152;2023-04-24T06:25:25;8.70;99.90
19544;DHT22;9917;51.256;7.152;2023-04-24T06:27:50;8.80;99.90
19544;DHT22;9917;51.256;7.152;2023-04-24T06:30:18;9.00;99.90
19544;DHT22;9917;51.256;7.152;2023-04-24T06:32:43;9.00;99.90
19544;DHT22;9917;51.256;7.152;2023-04-24T06:35:09;9.10;99.90
19544;DHT22;9917;51.256;7.152;2023-04-24T06:40:01;8.50;99.90
19544;DHT22;9917;51.256;7.152;2023-04-24T06:44:53;9.00;99.90
19544;DHT22;9917;51.256;7.152;2023-04-24T06:47:20;9.10;99.90
19544;DHT22;9917;51.256;7.152;2023-04-24T06:49:51;8.90;99.90
19544;DHT22;9917;51.256;7.152;2023-04-24T06:52:20;8.90;99.90
19544;DHT22;9917;51.256;7.152;2023-04-24T06:54:56;8.90;99.90
19544;DHT22;9917;51.256;7.152;2023-04-24T07:00:02;8.60;99.90
19544;DHT22;9917;51.256;7.152;2023-04-24T07:02:39;8.50;99.90
19544;DHT22;9917;51.256;7.152;2023-04-24T07:14:50;8.30;99.90
19544;DHT22;9917;51.256;7.152;2023-04-24T07:19:43;8.20;99.90
19544;DHT22;9917;51.256;7.152;2023-04-24T07:24:35;8.40;99.90
19544;DHT22;9917;51.256;7.152;2023-04-24T07:27:04;8.40;99.90
19544;DHT22;9917;51.256;7.152;2023-04-24T07:34:22;8.20;99.90
19544;DHT22;9917;51.256;7.152;2023-04-24T07:36:49;8.40;99.90
19544;DHT22;9917;51.256;7.152;2023-04-24T07:39:18;8.50;99.90
19544;DHT22;9917;51.256;7.152;2023-04-24T07:44:09;8.50;99.90
19544;DHT22;9917;51.256;7.152;2023-04-24T07:51:27;8.40;99.90
19544;DHT22;9917;51.256;7.152;2023-04-24T07:53:54;8.40;99.90
19544;DHT22;9917;51.256;7.152;2023-04-24T08:01:12;8.10;99.90
19544;DHT22;9917;51.256;7.152;2023-04-24T08:03:38;8.00;99.90
19544;DHT22;9917;51.256;7.152;2023-04-24T08:06:05;8.00;99.90
19544;DHT22;9917;51.256;7.152;2023-04-24T08:10:58;7.80;99.90
19544;DHT22;9917;51.256;7.152;2023-04-24T08:23:08;7.90;99.90
19544;DHT22;9917;51.256;7.152;2023-04-24T08:28:02;7.50;99.90
19544;DHT22;9917;51.256;7.152;2023-04-24T08:30:28;7.40;99.90
19544;DHT22;9917;51.256;7.152;2023-04-24T08:35:20;7.50;99.90
19544;DHT22;9917;51.256;7.152;2023-04-24T08:40:14;7.50;99.90
19544;DHT22;9917;51.256;7.152;2023-04-24T08:42:42;7.50;99.90
19544;DHT22;9917;51.256;7.152;2023-04-24T08:45:11;7.50;99.90
19544;DHT22;9917;51.256;7.152;2023-04-24T08:47:39;7.60;99.90
19544;DHT22;9917;51.256;7.152;2023-04-24T08:50:06;7.70;99.90
19544;DHT22;9917;51.256;7.152;2023-04-24T08:55:01;7.70;99.90
19544;DHT22;9917;51.256;7.152;2023-04-24T08:57:27;7.60;99.90
19544;DHT22;9917;51.256;7.152;2023-04-24T08:59:54;7.70;99.90
19544;DHT22;9917;51.256;7.152;2023-04-24T09:02:23;7.90;99.90
19544;DHT22;9917;51.256;7.152;2023-04-24T09:04:49;7.70;99.90
19544;DHT22;9917;51.256;7.152;2023-04-24T09:07:16;7.90;99.90
19544;DHT22;9917;51.256;7.152;2023-04-24T09:09:44;8.00;99.90
19544;DHT22;9917;51.256;7.152;2023-04-24T09:12:09;7.10;99.90
19544;DHT22;9917;51.256;7.152;2023-04-24T09:19:29;6.30;99.90
19544;DHT22;9917;51.256;7.152;2023-04-24T09:21:55;8.20;99.90
19544;DHT22;9917;51.256;7.152;2023-04-24T09:24:22;8.40;99.90
19544;DHT22;9917;51.256;7.152;2023-04-24T09:26:49;8.70;99.90
19544;DHT22;9917;51.256;7.152;2023-04-24T09:29:15;8.50;99.90
19544;DHT22;9917;51.256;7.152;2023-04-24T09:31:42;8.50;99.90
19544;DHT22;9917;51.256;7.152;2023-04-24T09:34:10;8.40;99.90
19544;DHT22;9917;51.256;7.152;2023-04-24T09:36:54;8.40;99.90
19544;DHT22;9917;51.256;7.152;2023-04-24T09:39:40;8.40;99.90
19544;DHT22;9917;51.256;7.152;2023-04-24T09:44:36;8.40;99.90
19544;DHT22;9917;51.256;7.152;2023-04-24T09:49:29;8.30;99.90
19544;DHT22;9917;51.256;7.152;2023-04-24T09:52:05;8.20;99.90
19544;DHT22;9917;51.256;7.152;2023-04-24T09:57:00;8.30;99.90
19544;DHT22;9917;51.256;7.152;2023-04-24T09:59:26;8.30;99.90
19544;DHT22;9917;51.256;7.152;2023-04-24T10:01:51;8.60;99.90
19544;DHT22;9917;51.256;7.152;2023-04-24T10:04:19;8.10;99.90
19544;DHT22;9917;51.256;7.152;2023-04-24T10:09:13;8.50;99.90
19544;DHT22;9917;51.256;7.152;2023-04-24T10:11:41;8.50;99.90
19544;DHT22;9917;51.256;7.152;2023-04-24T10:14:09;8.50;99.90
19544;DHT22;9917;51.256;7.152;2023-04-24T10:19:03;8.60;99.90
19544;DHT22;9917;51.256;7.152;2023-04-24T10:21:29;8.70;99.90
19544;DHT22;9917;51.256;7.152;2023-04-24T10:26:24;8.80;99.90
19544;DHT22;9917;51.256;7.152;2023-04-24T10:33:43;8.80;99.90
19544;DHT22;9917;51.256;7.152;2023-04-24T10:36:09;8.80;99.90
19544;DHT22;9917;51.256;7.152;2023-04-24T10:38:37;9.00;99.90
19544;DHT22;9917;51.256;7.152;2023-04-24T10:41:08;9.20;99.90
19544;DHT22;9917;51.256;7.152;2023-04-24T10:43:36;9.20;99.90
19544;DHT22;9917;51.256;7.152;2023-04-24T10:46:02;9.30;99.90
19544;DHT22;9917;51.256;7.152;2023-04-24T10:50:54;9.60;99.90
19544;DHT22;9917;51.256;7.152;2023-04-24T10:53:21;9.70;99.90
19544;DHT22;9917;51.256;7.152;2023-04-24T10:55:48;9.60;99.90
19544;DHT22;9917;51.256;7.152;2023-04-24T10:58:16;9.90;99.90
19544;DHT22;9917;51.256;7.152;2023-04-24T11:00:55;9.90;99.90
19544;DHT22;9917;51.256;7.152;2023-04-24T11:03:29;9.70;99.90
19544;DHT22;9917;51.256;7.152;2023-04-24T11:06:01;9.90;99.90
19544;DHT22;9917;51.256;7.152;2023-04-24T11:08:32;10.00;99.90
19544;DHT22;9917;51.256;7.152;2023-04-24T11:11:04;10.10;99.90
19544;DHT22;9917;51.256;7.152;2023-04-24T11:14:01;10.20;99.90
19544;DHT22;9917;51.256;7.152;2023-04-24T11:16:30;10.10;99.90
19544;DHT22;9917;51.256;7.152;2023-04-24T11:19:01;10.00;99.90
19544;DHT22;9917;51.256;7.152;2023-04-24T11:21:31;10.00;99.90
19544;DHT22;9917;51.256;7.152;2023-04-24T11:23:57;9.80;99.90
19544;DHT22;9917;51.256;7.152;2023-04-24T11:26:23;9.80;99.90
19544;DHT22;9917;51.256;7.152;2023-04-24T11:28:50;10.10;99.90
19544;DHT22;9917;51.256;7.152;2023-04-24T11:31:36;10.20;99.90
19544;DHT22;9917;51.256;7.152;2023-04-24T11:34:09;10.70;99.90
19544;DHT22;9917;51.256;7.152;2023-04-24T11:36:35;11.20;99.90
19544;DHT22;9917;51.256;7.152;2023-04-24T11:39:01;11.20;99.90
19544;DHT22;9917;51.256;7.152;2023-04-24T11:41:30;11.20;99.90
19544;DHT22;9917;51.256;7.152;2023-04-24T11:44:00;11.20;99.90
19544;DHT22;9917;51.256;7.152;2023-04-24T11:46:30;10.90;99.90
19544;DHT22;9917;51.256;7.152;2023-04-24T11:48:59;10.60;99.90
19544;DHT22;9917;51.256;7.152;2023-04-24T11:51:27;10.50;99.90
19544;DHT22;9917;51.256;7.152;2023-04-24T11:56:27;10.40;99.90
19544;DHT22;9917;51.256;7.152;2023-04-24T12:01:22;10.60;99.90
19544;DHT22;9917;51.256;7.152;2023-04-24T12:03:49;11.30;99.90
19544;DHT22;9917;51.256;7.152;2023-04-24T12:06:16;11.00;99.90
19544;DHT22;9917;51.256;7.152;2023-04-24T12:11:08;12.40;99.90
19544;DHT22;9917;51.256;7.152;2023-04-24T12:13:36;13.30;99.90
19544;DHT22;9917;51.256;7.152;2023-04-24T12:16:02;13.20;99.90
19544;DHT22;9917;51.256;7.152;2023-04-24T12:20:55;12.30;99.90
19544;DHT22;9917;51.256;7.152;2023-04-24T12:23:35;11.80;99.90
19544;DHT22;9917;51.256;7.152;2023-04-24T12:26:03;11.70;99.90
19544;DHT22;9917;51.256;7.152;2023-04-24T12:28:38;11.00;99.90
19544;DHT22;9917;51.256;7.152;2023-04-24T12:31:06;10.80;99.90
19544;DHT22;9917;51.256;7.152;2023-04-24T12:33:33;10.80;99.90
19544;DHT22;9917;51.256;7.152;2023-04-24T12:35:59;10.60;99.90
19544;DHT22;9917;51.256;7.152;2023-04-24T12:38:27;10.80;99.90
19544;DHT22;9917;51.256;7.152;2023-04-24T12:41:04;11.00;99.90
19544;DHT22;9917;51.256;7.152;2023-04-24T12:43:31;11.30;99.90
19544;DHT22;9917;51.256;7.152;2023-04-24T12:48:23;12.00;99.90
19544;DHT22;9917;51.256;7.152;2023-04-24T12:50:49;12.20;99.90
19544;DHT22;9917;51.256;7.152;2023-04-24T12:53:22;11.80;99.90
19544;DHT22;9917;51.256;7.152;2023-04-24T12:58:18;12.00;99.90
19544;DHT22;9917;51.256;7.152;2023-04-24T13:00:47;12.20;99.90
19544;DHT22;9917;51.256;7.152;2023-04-24T13:03:16;12.30;99.90
19544;DHT22;9917;51.256;7.152;2023-04-24T13:05:43;12.70;99.90
19544;DHT22;9917;51.256;7.152;2023-04-24T13:10:35;14.60;99.90
19544;DHT22;9917;51.256;7.152;2023-04-24T13:13:01;14.80;99.90
19544;DHT22;9917;51.256;7.152;2023-04-24T13:15:30;16.50;99.90
19544;DHT22;9917;51.256;7.152;2023-04-24T13:20:28;16.50;99.70
19544;DHT22;9917;51.256;7.152;2023-04-24T13:22:54;15.50;99.90
19544;DHT22;9917;51.256;7.152;2023-04-24T13:25:20;15.40;99.90
19544;DHT22;9917;51.256;7.152;2023-04-24T13:27:49;14.50;99.90
19544;DHT22;9917;51.256;7.152;2023-04-24T13:30:15;14.60;99.90
19544;DHT22;9917;51.256;7.152;2023-04-24T13:32:43;14.90;99.90
19544;DHT22;9917;51.256;7.152;2023-04-24T13:37:35;15.20;99.90
19544;DHT22;9917;51.256;7.152;2023-04-24T13:40:02;14.40;99.90
19544;DHT22;9917;51.256;7.152;2023-04-24T13:44:54;13.90;99.90
19544;DHT22;9917;51.256;7.152;2023-04-24T13:47:24;13.70;99.90
19544;DHT22;9917;51.256;7.152;2023-04-24T13:49:58;13.10;99.90
19544;DHT22;9917;51.256;7.152;2023-04-24T13:52:29;13.00;99.90
19544;DHT22;9917;51.256;7.152;2023-04-24T13:54:57;13.10;99.90
19544;DHT22;9917;51.256;7.152;2023-04-24T13:57:23;12.80;99.90
19544;DHT22;9917;51.256;7.152;2023-04-24T13:59:50;13.20;99.90
19544;DHT22;9917;51.256;7.152;2023-04-24T14:04:46;13.40;99.90
19544;DHT22;9917;51.256;7.152;2023-04-24T14:07:13;13.20;99.90
19544;DHT22;9917;51.256;7.152;2023-04-24T14:09:39;13.10;99.90
19544;DHT22;9917;51.256;7.152;2023-04-24T14:12:10;12.80;99.90
19544;DHT22;9917;51.256;7.152;2023-04-24T14:14:36;12.70;99.90
19544;DHT22;9917;51.256;7.152;2023-04-24T14:17:03;12.90;99.90
19544;DHT22;9917;51.256;7.152;2023-04-24T14:19:32;13.10;99.90
19544;DHT22;9917;51.256;7.152;2023-04-24T14:21:59;12.90;99.90
19544;DHT22;9917;51.256;7.152;2023-04-24T14:24:37;12.90;99.90
19544;DHT22;9917;51.256;7.152;2023-04-24T14:27:07;13.40;99.90
19544;DHT22;9917;51.256;7.152;2023-04-24T14:29:33;12.90;99.90
19544;DHT22;9917;51.256;7.152;2023-04-24T14:32:02;12.80;99.90
19544;DHT22;9917;51.256;7.152;2023-04-24T14:34:32;12.60;99.90
19544;DHT22;9917;51.256;7.152;2023-04-24T14:37:01;12.80;99.90
19544;DHT22;9917;51.256;7.152;2023-04-24T14:39:28;12.90;99.90
19544;DHT22;9917;51.256;7.152;2023-04-24T14:41:54;12.90;99.90
19544;DHT22;9917;51.256;7.152;2023-04-24T14:44:24;12.70;99.90
19544;DHT22;9917;51.256;7.152;2023-04-24T14:46:56;12.20;99.90
19544;DHT22;9917;51.256;7.152;2023-04-24T14:49:23;12.50;99.90
19544;DHT22;9917;51.256;7.152;2023-04-24T14:51:49;13.10;99.90
19544;DHT22;9917;51.256;7.152;2023-04-24T14:54:18;12.30;99.90
19544;DHT22;9917;51.256;7.152;2023-04-24T14:56:46;12.60;99.90
19544;DHT22;9917;51.256;7.152;2023-04-24T14:59:11;12.60;99.90
19544;DHT22;9917;51.256;7.152;2023-04-24T15:04:03;12.50;99.90
19544;DHT22;9917;51.256;7.152;2023-04-24T15:06:30;12.60;99.90
19544;DHT22;9917;51.256;7.152;2023-04-24T15:08:55;12.80;99.90
19544;DHT22;9917;51.256;7.152;2023-04-24T15:11:21;13.00;99.90
19544;DHT22;9917;51.256;7.152;2023-04-24T15:13:48;13.20;99.90
19544;DHT22;9917;51.256;7.152;2023-04-24T15:16:15;13.40;99.90
19544;DHT22;9917;51.256;7.152;2023-04-24T15:21:07;13.70;99.80
19544;DHT22;9917;51.256;7.152;2023-04-24T15:23:34;13.60;99.40
19544;DHT22;9917;51.256;7.152;2023-04-24T15:28:27;13.20;98.80
19544;DHT22;9917;51.256;7.152;2023-04-24T15:30:57;13.30;99.20
19544;DHT22;9917;51.256;7.152;2023-04-24T15:33:23;13.10;99.60
19544;DHT22;9917;51.256;7.152;2023-04-24T15:35:49;13.30;99.70
19544;DHT22;9917;51.256;7.152;2023-04-24T15:38:19;13.70;99.30
19544;DHT22;9917;51.256;7.152;2023-04-24T15:40:45;13.80;99.30
19544;DHT22;9917;51.256;7.152;2023-04-24T15:45:37;14.40;99.00
19544;DHT22;9917;51.256;7.152;2023-04-24T15:48:04;13.80;99.60
19544;DHT22;9917;51.256;7.152;2023-04-24T15:50:30;13.90;99.30
19544;DHT22;9917;51.256;7.152;2023-04-24T15:53:01;13.50;99.10
19544;DHT22;9917;51.256;7.152;2023-04-24T15:55:27;13.30;99.90
19544;DHT22;9917;51.256;7.152;2023-04-24T15:57:54;13.50;99.80
19544;DHT22;9917;51.256;7.152;2023-04-24T16:00:22;13.90;99.70
19544;DHT22;9917;51.256;7.152;2023-04-24T16:02:48;13.70;99.80
19544;DHT22;9917;51.256;7.152;2023-04-24T16:05:18;13.70;99.90
19544;DHT22;9917;51.256;7.152;2023-04-24T16:07:44;13.80;99.90
19544;DHT22;9917;51.256;7.152;2023-04-24T16:10:11;13.60;99.90
19544;DHT22;9917;51.256;7.152;2023-04-24T16:12:36;13.40;99.50
19544;DHT22;9917;51.256;7.152;2023-04-24T16:15:03;13.70;99.10
19544;DHT22;9917;51.256;7.152;2023-04-24T16:17:32;13.20;99.00
19544;DHT22;9917;51.256;7.152;2023-04-24T16:19:57;12.80;99.30
19544;DHT22;9917;51.256;7.152;2023-04-24T16:22:25;13.00;99.90
19544;DHT22;9917;51.256;7.152;2023-04-24T16:24:50;12.80;99.90
19544;DHT22;9917;51.256;7.152;2023-04-24T16:27:16;10.80;99.80
19544;DHT22;9917;51.256;7.152;2023-04-24T16:29:43;12.60;99.90
19544;DHT22;9917;51.256;7.152;2023-04-24T16:32:09;12.40;99.90
19544;DHT22;9917;51.256;7.152;2023-04-24T16:34:37;12.30;99.90
19544;DHT22;9917;51.256;7.152;2023-04-24T16:37:03;12.40;99.90
19544;DHT22;9917;51.256;7.152;2023-04-24T16:39:33;12.40;99.90
19544;DHT22;9917;51.256;7.152;2023-04-24T16:42:03;12.70;99.90
19544;DHT22;9917;51.256;7.152;2023-04-24T16:44:30;12.40;99.90
19544;DHT22;9917;51.256;7.152;2023-04-24T16:46:56;12.40;99.90
19544;DHT22;9917;51.256;7.152;2023-04-24T16:51:50;12.80;99.90
19544;DHT22;9917;51.256;7.152;2023-04-24T16:54:16;12.70;99.90
19544;DHT22;9917;51.256;7.152;2023-04-24T16:56:46;12.80;99.90
19544;DHT22;9917;51.256;7.152;2023-04-24T16:59:11;12.40;99.90
19544;DHT22;9917;51.256;7.152;2023-04-24T17:04:03;12.30;99.90
19544;DHT22;9917;51.256;7.152;2023-04-24T17:06:29;12.30;99.90
19544;DHT22;9917;51.256;7.152;2023-04-24T17:13:48;12.30;99.90
19544;DHT22;9917;51.256;7.152;2023-04-24T17:16:14;12.50;99.90
19544;DHT22;9917;51.256;7.152;2023-04-24T17:18:39;11.90;99.90
19544;DHT22;9917;51.256;7.152;2023-04-24T17:23:31;11.80;99.90
19544;DHT22;9917;51.256;7.152;2023-04-24T17:26:21;11.80;99.90
19544;DHT22;9917;51.256;7.152;2023-04-24T17:28:49;11.80;99.90
19544;DHT22;9917;51.256;7.152;2023-04-24T17:41:01;12.80;99.90
19544;DHT22;9917;51.256;7.152;2023-04-24T17:43:33;11.80;99.90
19544;DHT22;9917;51.256;7.152;2023-04-24T17:46:00;11.60;99.90
19544;DHT22;9917;51.256;7.152;2023-04-24T17:48:26;11.30;99.90
19544;DHT22;9917;51.256;7.152;2023-04-24T17:50:52;11.10;99.90
19544;DHT22;9917;51.256;7.152;2023-04-24T17:55:45;10.90;99.90
19544;DHT22;9917;51.256;7.152;2023-04-24T17:58:12;10.60;99.90
19544;DHT22;9917;51.256;7.152;2023-04-24T18:00:38;10.80;99.90
19544;DHT22;9917;51.256;7.152;2023-04-24T18:03:06;10.90;99.90
19544;DHT22;9917;51.256;7.152;2023-04-24T18:05:33;10.70;99.90
19544;DHT22;9917;51.256;7.152;2023-04-24T18:07:59;10.60;99.90
19544;DHT22;9917;51.256;7.152;2023-04-24T18:10:26;10.50;99.90
19544;DHT22;9917;51.256;7.152;2023-04-24T18:12:52;10.40;99.90
19544;DHT22;9917;51.256;7.152;2023-04-24T18:15:18;10.30;99.90
19544;DHT22;9917;51.256;7.152;2023-04-24T18:17:45;10.40;99.90
19544;DHT22;9917;51.256;7.152;2023-04-24T18:20:13;10.70;99.90
19544;DHT22;9917;51.256;7.152;2023-04-24T18:22:39;10.40;99.90
19544;DHT22;9917;51.256;7.152;2023-04-24T18:25:05;10.40;99.90
19544;DHT22;9917;51.256;7.152;2023-04-24T18:27:31;10.20;99.90
19544;DHT22;9917;51.256;7.152;2023-04-24T18:32:23;10.10;99.90
19544;DHT22;9917;51.256;7.152;2023-04-24T18:34:49;10.10;99.90
19544;DHT22;9917;51.256;7.152;2023-04-24T18:37:16;10.00;99.90
19544;DHT22;9917;51.256;7.152;2023-04-24T18:39:42;9.90;99.90
19544;DHT22;9917;51.256;7.152;2023-04-24T18:42:07;9.90;99.90
19544;DHT22;9917;51.256;7.152;2023-04-24T18:46:59;9.80;99.90
19544;DHT22;9917;51.256;7.152;2023-04-24T18:49:25;9.60;99.90
19544;DHT22;9917;51.256;7.152;2023-04-24T18:51:52;9.90;99.90
19544;DHT22;9917;51.256;7.152;2023-04-24T18:54:19;9.80;99.90
19544;DHT22;9917;51.256;7.152;2023-04-24T18:56:45;9.80;99.90
19544;DHT22;9917;51.256;7.152;2023-04-24T18:59:10;10.00;99.90
19544;DHT22;9917;51.256;7.152;2023-04-24T19:01:36;10.20;99.90
19544;DHT22;9917;51.256;7.152;2023-04-24T19:04:02;9.90;99.90
19544;DHT22;9917;51.256;7.152;2023-04-24T19:06:28;10.20;99.90
19544;DHT22;9917;51.256;7.152;2023-04-24T19:08:53;10.00;99.90
19544;DHT22;9917;51.256;7.152;2023-04-24T19:11:20;10.00;99.90
19544;DHT22;9917;51.256;7.152;2023-04-24T19:13:46;9.90;99.90
19544;DHT22;9917;51.256;7.152;2023-04-24T19:16:12;10.00;99.90
19544;DHT22;9917;51.256;7.152;2023-04-24T19:18:37;10.40;99.90
19544;DHT22;9917;51.256;7.152;2023-04-24T19:21:03;10.30;99.90
19544;DHT22;9917;51.256;7.152;2023-04-24T19:23:30;10.20;99.90
19544;DHT22;9917;51.256;7.152;2023-04-24T19:25:56;10.10;99.90
19544;DHT22;9917;51.256;7.152;2023-04-24T19:28:23;10.00;99.90
19544;DHT22;9917;51.256;7.152;2023-04-24T19:33:15;9.90;99.90
19544;DHT22;9917;51.256;7.152;2023-04-24T19:38:06;10.00;99.90
19544;DHT22;9917;51.256;7.152;2023-04-24T19:42:58;10.20;99.90
19544;DHT22;9917;51.256;7.152;2023-04-24T19:45:25;9.80;99.90
19544;DHT22;9917;51.256;7.152;2023-04-24T19:52:43;9.90;99.90
19544;DHT22;9917;51.256;7.152;2023-04-24T19:55:09;9.60;99.90
19544;DHT22;9917;51.256;7.152;2023-04-24T19:57:35;10.10;99.90
19544;DHT22;9917;51.256;7.152;2023-04-24T20:00:00;10.00;99.90
19544;DHT22;9917;51.256;7.152;2023-04-24T20:02:30;9.50;99.90
19544;DHT22;9917;51.256;7.152;2023-04-24T20:04:56;9.30;99.90
19544;DHT22;9917;51.256;7.152;2023-04-24T20:07:22;9.30;99.90
19544;DHT22;9917;51.256;7.152;2023-04-24T20:09:51;9.40;99.90
19544;DHT22;9917;51.256;7.152;2023-04-24T20:12:17;9.60;99.90